sensor_id;sensor_type;location;lat;lon;timestamp;pressure;altitude;pressure_sealevel;temperature;humidity
72157;BME280;60035;52.122;5.406;2023-07-16T00:00:18;100947.28;;;17.79;65.18
72157;BME280;60035;52.122;5.406;2023-07-16T00:02:46;100946.28;;;17.82;65.09
72157;BME280;60035;52.122;5.406;2023-07-16T00:05:13;100948.88;;;17.82;64.50
72157;BME280;60035;52.122;5.406;2023-07-16T00:07:41;100955.78;;;17.81;64.65
72157;BME280;60035;52.122;5.406;2023-07-16T00:10:08;100958.28;;;17.83;64.31
72157;BME280;60035;52.122;5.406;2023-07-16T00:12:34;100958.28;;;17.83;64.29
72157;BME280;60035;52.122;5.406;2023-07-16T00:15:01;100957.56;;;17.81;64.15
72157;BME280;60035;52.122;5.406;2023-07-16T00:17:27;100957.66;;;17.79;64.23
72157;BME280;60035;52.122;5.406;2023-07-16T00:19:56;100950.78;;;17.78;63.81
72157;BME280;60035;52.122;5.406;2023-07-16T00:22:23;100949.88;;;17.79;63.88
72157;BME280;60035;52.122;5.406;2023-07-16T00:24:50;100947.19;;;17.81;63.54
72157;BME280;60035;52.122;5.406;2023-07-16T00:27:17;100948.94;;;17.80;63.51
72157;BME280;60035;52.122;5.406;2023-07-16T00:29:43;100952.53;;;17.78;63.53
72157;BME280;60035;52.122;5.406;2023-07-16T00:32:10;100951.91;;;17.74;63.90
72157;BME280;60035;52.122;5.406;2023-07-16T00:34:36;100958.19;;;17.70;63.89
72157;BME280;60035;52.122;5.406;2023-07-16T00:37:03;100956.50;;;17.69;63.83
72157;BME280;60035;52.122;5.406;2023-07-16T00:39:30;100949.75;;;17.67;64.10
72157;BME280;60035;52.122;5.406;2023-07-16T00:41:57;100967.97;;;17.65;64.22
72157;BME280;60035;52.122;5.406;2023-07-16T00:44:23;100961.31;;;17.61;64.49
72157;BME280;60035;52.122;5.406;2023-07-16T00:46:50;100967.47;;;17.58;64.50
72157;BME280;60035;52.122;5.406;2023-07-16T00:49:17;100967.53;;;17.57;64.55
72157;BME280;60035;52.122;5.406;2023-07-16T00:51:44;100965.13;;;17.54;64.76
72157;BME280;60035;52.122;5.406;2023-07-16T00:54:11;100965.13;;;17.54;64.60
72157;BME280;60035;52.122;5.406;2023-07-16T00:56:38;100972.09;;;17.53;64.67
72157;BME280;60035;52.122;5.406;2023-07-16T00:59:05;100976.50;;;17.51;64.75
72157;BME280;60035;52.122;5.406;2023-07-16T01:01:31;100969.94;;;17.45;64.91
72157;BME280;60035;52.122;5.406;2023-07-16T01:03:58;100971.84;;;17.42;65.12
72157;BME280;60035;52.122;5.406;2023-07-16T01:06:35;100978.88;;;17.40;65.35
72157;BME280;60035;52.122;5.406;2023-07-16T01:09:11;100979.78;;;17.39;65.63
72157;BME280;60035;52.122;5.406;2023-07-16T01:11:42;100979.22;;;17.34;65.86
72157;BME280;60035;52.122;5.406;2023-07-16T01:14:09;100972.44;;;17.31;65.88
72157;BME280;60035;52.122;5.406;2023-07-16T01:16:36;100967.38;;;17.29;65.65
72157;BME280;60035;52.122;5.406;2023-07-16T01:19:03;100965.59;;;17.30;65.94
72157;BME280;60035;52.122;5.406;2023-07-16T01:21:47;100963.88;;;17.30;65.91
72157;BME280;60035;52.122;5.406;2023-07-16T01:29:58;100957.03;;;17.29;66.33
72157;BME280;60035;52.122;5.406;2023-07-16T01:32:28;100959.59;;;17.29;66.26
72157;BME280;60035;52.122;5.406;2023-07-16T01:34:57;100967.47;;;17.28;66.35
72157;BME280;60035;52.122;5.406;2023-07-16T01:37:24;100963.19;;;17.27;66.42
72157;BME280;60035;52.122;5.406;2023-07-16T01:39:50;100966.69;;;17.26;66.66
72157;BME280;60035;52.122;5.406;2023-07-16T01:42:17;100966.78;;;17.24;66.62
72157;BME280;60035;52.122;5.406;2023-07-16T01:44:43;100960.84;;;17.22;66.89
72157;BME280;60035;52.122;5.406;2023-07-16T01:47:19;100965.94;;;17.24;66.82
72157;BME280;60035;52.122;5.406;2023-07-16T01:49:49;100960.75;;;17.24;66.87
72157;BME280;60035;52.122;5.406;2023-07-16T01:52:16;100970.28;;;17.23;67.07
72157;BME280;60035;52.122;5.406;2023-07-16T01:54:42;100967.78;;;17.22;67.09
72157;BME280;60035;52.122;5.406;2023-07-16T01:57:09;100962.84;;;17.17;67.38
72157;BME280;60035;52.122;5.406;2023-07-16T01:59:35;100962.03;;;17.17;67.71
72157;BME280;60035;52.122;5.406;2023-07-16T02:02:02;100965.44;;;17.17;67.43
72157;BME280;60035;52.122;5.406;2023-07-16T02:04:31;100966.38;;;17.16;67.99
72157;BME280;60035;52.122;5.406;2023-07-16T02:06:57;100966.28;;;17.18;67.92
72157;BME280;60035;52.122;5.406;2023-07-16T02:09:24;100970.63;;;17.17;67.82
72157;BME280;60035;52.122;5.406;2023-07-16T02:11:51;100966.38;;;17.16;67.93
72157;BME280;60035;52.122;5.406;2023-07-16T02:14:18;100966.28;;;17.18;68.21
72157;BME280;60035;52.122;5.406;2023-07-16T02:16:45;100961.84;;;17.20;68.17
72157;BME280;60035;52.122;5.406;2023-07-16T02:19:11;100967.13;;;17.18;68.41
72157;BME280;60035;52.122;5.406;2023-07-16T02:21:38;100962.84;;;17.17;68.46
72157;BME280;60035;52.122;5.406;2023-07-16T02:24:04;100961.28;;;17.14;68.39
72157;BME280;60035;52.122;5.406;2023-07-16T02:26:31;100963.94;;;17.13;68.84
72157;BME280;60035;52.122;5.406;2023-07-16T02:28:57;100964.03;;;17.11;69.04
72157;BME280;60035;52.122;5.406;2023-07-16T02:31:25;100969.53;;;17.05;69.76
72157;BME280;60035;52.122;5.406;2023-07-16T02:33:52;100964.47;;;17.04;69.24
72157;BME280;60035;52.122;5.406;2023-07-16T02:36:18;100974.91;;;17.02;69.60
72157;BME280;60035;52.122;5.406;2023-07-16T02:38:45;100970.56;;;17.03;69.82
72157;BME280;60035;52.122;5.406;2023-07-16T02:41:11;100969.81;;;17.01;70.14
72157;BME280;60035;52.122;5.406;2023-07-16T02:43:38;100968.91;;;17.02;70.07
72157;BME280;60035;52.122;5.406;2023-07-16T02:46:04;100960.13;;;17.04;70.37
72157;BME280;60035;52.122;5.406;2023-07-16T02:48:31;100969.47;;;17.07;70.30
72157;BME280;60035;52.122;5.406;2023-07-16T02:50:57;100961.63;;;17.08;70.04
72157;BME280;60035;52.122;5.406;2023-07-16T02:53:24;100973.56;;;17.11;70.34
72157;BME280;60035;52.122;5.406;2023-07-16T02:55:50;100968.47;;;17.09;70.37
72157;BME280;60035;52.122;5.406;2023-07-16T02:58:17;100965.91;;;17.09;70.25
72157;BME280;60035;52.122;5.406;2023-07-16T03:00:43;100966.91;;;17.07;70.39
72157;BME280;60035;52.122;5.406;2023-07-16T03:03:10;100971.22;;;17.06;70.31
72157;BME280;60035;52.122;5.406;2023-07-16T03:05:37;100979.16;;;17.03;70.36
72157;BME280;60035;52.122;5.406;2023-07-16T03:08:03;100980.91;;;17.03;70.58
72157;BME280;60035;52.122;5.406;2023-07-16T03:10:30;100983.75;;;16.98;70.73
72157;BME280;60035;52.122;5.406;2023-07-16T03:12:57;100981.34;;;16.95;70.80
72157;BME280;60035;52.122;5.406;2023-07-16T03:15:23;100979.66;;;16.94;70.76
72157;BME280;60035;52.122;5.406;2023-07-16T03:17:49;100981.47;;;16.92;70.74
72157;BME280;60035;52.122;5.406;2023-07-16T03:20:16;100985.00;;;16.91;70.92
72157;BME280;60035;52.122;5.406;2023-07-16T03:22:43;100980.75;;;16.90;71.06
72157;BME280;60035;52.122;5.406;2023-07-16T03:25:09;100979.13;;;16.87;71.32
72157;BME280;60035;52.122;5.406;2023-07-16T03:27:36;100974.88;;;16.86;71.13
72157;BME280;60035;52.122;5.406;2023-07-16T03:30:03;100974.88;;;16.86;71.31
72157;BME280;60035;52.122;5.406;2023-07-16T03:32:30;100979.22;;;16.86;71.30
72157;BME280;60035;52.122;5.406;2023-07-16T03:35:15;100980.84;;;16.87;71.43
72157;BME280;60035;52.122;5.406;2023-07-16T03:37:42;100980.28;;;16.81;71.65
72157;BME280;60035;52.122;5.406;2023-07-16T03:40:16;100981.34;;;16.77;71.93
72157;BME280;60035;52.122;5.406;2023-07-16T03:42:43;100984.88;;;16.76;71.94
72157;BME280;60035;52.122;5.406;2023-07-16T03:45:10;100985.00;;;16.73;72.04
72157;BME280;60035;52.122;5.406;2023-07-16T03:47:37;101001.47;;;16.72;72.22
72157;BME280;60035;52.122;5.406;2023-07-16T03:50:04;101007.38;;;16.74;72.34
72157;BME280;60035;52.122;5.406;2023-07-16T03:52:31;101006.56;;;16.74;71.98
72157;BME280;60035;52.122;5.406;2023-07-16T03:54:58;101006.47;;;16.75;72.02
72157;BME280;60035;52.122;5.406;2023-07-16T03:57:25;101010.72;;;16.76;71.71
72157;BME280;60035;52.122;5.406;2023-07-16T03:59:52;101007.97;;;16.79;71.45
72157;BME280;60035;52.122;5.406;2023-07-16T04:02:18;101014.81;;;16.80;71.63
72157;BME280;60035;52.122;5.406;2023-07-16T04:04:45;101021.72;;;16.80;71.57
72157;BME280;60035;52.122;5.406;2023-07-16T04:07:12;101023.56;;;16.78;71.66
72157;BME280;60035;52.122;5.406;2023-07-16T04:09:39;101023.56;;;16.78;71.51
72157;BME280;60035;52.122;5.406;2023-07-16T04:12:06;101024.31;;;16.80;71.33
72157;BME280;60035;52.122;5.406;2023-07-16T04:14:33;101025.16;;;16.80;71.32
72157;BME280;60035;52.122;5.406;2023-07-16T04:16:59;101027.91;;;16.77;71.48
72157;BME280;60035;52.122;5.406;2023-07-16T04:19:26;101017.56;;;16.77;71.51
72157;BME280;60035;52.122;5.406;2023-07-16T04:21:52;101026.91;;;16.80;71.63
72157;BME280;60035;52.122;5.406;2023-07-16T04:24:19;101036.34;;;16.81;71.33
72157;BME280;60035;52.122;5.406;2023-07-16T04:26:45;101021.69;;;16.81;71.39
72157;BME280;60035;52.122;5.406;2023-07-16T04:29:12;101031.09;;;16.82;71.31
72157;BME280;60035;52.122;5.406;2023-07-16T04:31:38;101033.66;;;16.82;71.21
72157;BME280;60035;52.122;5.406;2023-07-16T04:34:05;101043.19;;;16.82;71.30
72157;BME280;60035;52.122;5.406;2023-07-16T04:36:32;101049.94;;;16.85;71.27
72157;BME280;60035;52.122;5.406;2023-07-16T04:38:58;101052.44;;;16.86;71.04
72157;BME280;60035;52.122;5.406;2023-07-16T04:41:25;101056.63;;;16.89;70.77
72157;BME280;60035;52.122;5.406;2023-07-16T04:43:51;101049.69;;;16.89;70.93
72157;BME280;60035;52.122;5.406;2023-07-16T04:46:18;101047.09;;;16.91;70.81
72157;BME280;60035;52.122;5.406;2023-07-16T04:48:45;101058.16;;;16.93;70.65
72157;BME280;60035;52.122;5.406;2023-07-16T04:51:12;101055.50;;;16.94;70.88
72157;BME280;60035;52.122;5.406;2023-07-16T04:53:38;101060.56;;;16.96;70.83
72157;BME280;60035;52.122;5.406;2023-07-16T04:56:11;101058.69;;;16.99;70.47
72157;BME280;60035;52.122;5.406;2023-07-16T04:58:38;101068.19;;;16.99;70.02
72157;BME280;60035;52.122;5.406;2023-07-16T05:01:05;101062.16;;;16.98;70.12
72157;BME280;60035;52.122;5.406;2023-07-16T05:03:32;101060.34;;;17.01;70.14
72157;BME280;60035;52.122;5.406;2023-07-16T05:05:58;101064.44;;;17.05;69.84
72157;BME280;60035;52.122;5.406;2023-07-16T05:08:25;101069.53;;;17.06;70.02
72157;BME280;60035;52.122;5.406;2023-07-16T05:10:51;101064.28;;;17.08;69.86
72157;BME280;60035;52.122;5.406;2023-07-16T05:13:18;101064.13;;;17.11;69.57
72157;BME280;60035;52.122;5.406;2023-07-16T05:15:44;101059.59;;;17.14;69.41
72157;BME280;60035;52.122;5.406;2023-07-16T05:18:11;101061.88;;;17.21;69.43
72157;BME280;60035;52.122;5.406;2023-07-16T05:20:38;101058.28;;;17.23;69.14
72157;BME280;60035;52.122;5.406;2023-07-16T05:23:04;101064.94;;;17.27;69.03
72157;BME280;60035;52.122;5.406;2023-07-16T05:25:31;101064.03;;;17.28;68.61
72157;BME280;60035;52.122;5.406;2023-07-16T05:27:58;101064.72;;;17.32;68.40
72157;BME280;60035;52.122;5.406;2023-07-16T05:30:24;101080.84;;;17.37;68.48
72157;BME280;60035;52.122;5.406;2023-07-16T05:32:51;101072.81;;;17.42;67.99
72157;BME280;60035;52.122;5.406;2023-07-16T05:35:17;101074.47;;;17.43;67.98
72157;BME280;60035;52.122;5.406;2023-07-16T05:37:44;101072.56;;;17.46;67.63
72157;BME280;60035;52.122;5.406;2023-07-16T05:40:11;101079.88;;;17.54;67.30
72157;BME280;60035;52.122;5.406;2023-07-16T05:42:37;101095.19;;;17.59;66.76
72157;BME280;60035;52.122;5.406;2023-07-16T05:45:04;101094.84;;;17.65;66.96
72157;BME280;60035;52.122;5.406;2023-07-16T05:47:31;101097.03;;;17.73;66.46
72157;BME280;60035;52.122;5.406;2023-07-16T05:49:58;101105.63;;;17.73;66.60
72157;BME280;60035;52.122;5.406;2023-07-16T05:52:24;101110.47;;;17.79;66.14
72157;BME280;60035;52.122;5.406;2023-07-16T05:54:50;101112.69;;;17.86;66.17
72157;BME280;60035;52.122;5.406;2023-07-16T05:57:17;101110.47;;;17.95;66.16
72157;BME280;60035;52.122;5.406;2023-07-16T05:59:44;101110.28;;;17.98;65.60
72157;BME280;60035;52.122;5.406;2023-07-16T06:02:10;101118.75;;;18.02;65.58
72157;BME280;60035;52.122;5.406;2023-07-16T06:04:37;101114.13;;;18.07;65.62
72157;BME280;60035;52.122;5.406;2023-07-16T06:07:04;101116.34;;;18.13;65.07
72157;BME280;60035;52.122;5.406;2023-07-16T06:09:30;101121.28;;;18.18;65.11
72157;BME280;60035;52.122;5.406;2023-07-16T06:11:57;101124.53;;;18.22;64.58
72157;BME280;60035;52.122;5.406;2023-07-16T06:14:24;101126.19;;;18.23;64.41
72157;BME280;60035;52.122;5.406;2023-07-16T06:16:50;101120.66;;;18.29;64.79
72157;BME280;60035;52.122;5.406;2023-07-16T06:19:17;101128.34;;;18.30;64.01
72157;BME280;60035;52.122;5.406;2023-07-16T06:21:43;101122.91;;;18.35;64.11
72157;BME280;60035;52.122;5.406;2023-07-16T06:24:10;101126.06;;;18.40;63.85
72157;BME280;60035;52.122;5.406;2023-07-16T06:26:40;101129.22;;;18.45;64.05
72157;BME280;60035;52.122;5.406;2023-07-16T06:29:07;101130.72;;;18.50;63.66
72157;BME280;60035;52.122;5.406;2023-07-16T06:31:33;101128.66;;;18.55;63.23
72157;BME280;60035;52.122;5.406;2023-07-16T06:34:00;101134.53;;;18.58;63.48
72157;BME280;60035;52.122;5.406;2023-07-16T06:36:26;101130.72;;;18.64;63.67
72157;BME280;60035;52.122;5.406;2023-07-16T06:38:53;101126.66;;;18.74;63.77
72157;BME280;60035;52.122;5.406;2023-07-16T06:41:19;101132.41;;;18.79;63.24
72157;BME280;60035;52.122;5.406;2023-07-16T06:43:46;101143.47;;;18.83;63.37
72157;BME280;60035;52.122;5.406;2023-07-16T06:46:12;101126.13;;;18.84;62.69
72157;BME280;60035;52.122;5.406;2023-07-16T06:48:39;101148.13;;;18.92;63.28
72157;BME280;60035;52.122;5.406;2023-07-16T06:51:06;101130.63;;;18.96;62.53
72157;BME280;60035;52.122;5.406;2023-07-16T06:53:33;101131.34;;;18.98;62.42
72157;BME280;60035;52.122;5.406;2023-07-16T06:55:59;101140.44;;;19.05;62.67
72157;BME280;60035;52.122;5.406;2023-07-16T06:58:33;101141.63;;;19.14;62.51
72157;BME280;60035;52.122;5.406;2023-07-16T07:01:00;101144.78;;;19.19;61.99
72157;BME280;60035;52.122;5.406;2023-07-16T07:03:26;101134.19;;;19.22;62.53
72157;BME280;60035;52.122;5.406;2023-07-16T07:05:53;101145.78;;;19.31;62.28
72157;BME280;60035;52.122;5.406;2023-07-16T07:08:20;101153.78;;;19.42;62.55
72157;BME280;60035;52.122;5.406;2023-07-16T07:10:48;101153.09;;;19.53;62.03
72157;BME280;60035;52.122;5.406;2023-07-16T07:13:15;101168.09;;;19.62;61.46
72157;BME280;60035;52.122;5.406;2023-07-16T07:15:42;101169.16;;;19.45;61.20
72157;BME280;60035;52.122;5.406;2023-07-16T07:18:09;101172.31;;;19.36;61.64
72157;BME280;60035;52.122;5.406;2023-07-16T07:20:35;101167.81;;;19.53;61.70
72157;BME280;60035;52.122;5.406;2023-07-16T07:23:02;101166.16;;;19.66;61.33
72157;BME280;60035;52.122;5.406;2023-07-16T07:25:29;101169.09;;;19.74;60.30
72157;BME280;60035;52.122;5.406;2023-07-16T07:27:57;101189.44;;;19.68;60.25
72157;BME280;60035;52.122;5.406;2023-07-16T07:30:24;101188.59;;;19.53;60.72
72157;BME280;60035;52.122;5.406;2023-07-16T07:32:50;101188.34;;;19.57;61.12
72157;BME280;60035;52.122;5.406;2023-07-16T07:35:17;101203.66;;;19.62;61.00
72157;BME280;60035;52.122;5.406;2023-07-16T07:37:43;101181.66;;;19.53;61.75
72157;BME280;60035;52.122;5.406;2023-07-16T07:40:10;101180.63;;;19.70;61.60
72157;BME280;60035;52.122;5.406;2023-07-16T07:42:37;101185.81;;;19.70;61.05
72157;BME280;60035;52.122;5.406;2023-07-16T07:45:04;101189.59;;;19.64;61.13
72157;BME280;60035;52.122;5.406;2023-07-16T07:47:30;101188.50;;;19.69;61.66
72157;BME280;60035;52.122;5.406;2023-07-16T07:49:57;101194.31;;;19.87;61.19
72157;BME280;60035;52.122;5.406;2023-07-16T07:52:23;101193.78;;;19.81;60.34
72157;BME280;60035;52.122;5.406;2023-07-16T07:54:50;101202.69;;;19.77;60.84
72157;BME280;60035;52.122;5.406;2023-07-16T07:57:17;101207.03;;;19.77;61.01
72157;BME280;60035;52.122;5.406;2023-07-16T07:59:44;101198.97;;;19.67;61.35
72157;BME280;60035;52.122;5.406;2023-07-16T08:02:10;101206.13;;;19.78;61.26
72157;BME280;60035;52.122;5.406;2023-07-16T08:04:37;101214.47;;;19.83;61.14
72157;BME280;60035;52.122;5.406;2023-07-16T08:07:04;101221.44;;;19.83;60.82
72157;BME280;60035;52.122;5.406;2023-07-16T08:09:30;101218.16;;;19.79;61.12
72157;BME280;60035;52.122;5.406;2023-07-16T08:11:57;101217.94;;;19.84;61.28
72157;BME280;60035;52.122;5.406;2023-07-16T08:14:23;101220.66;;;19.95;60.95
72157;BME280;60035;52.122;5.406;2023-07-16T08:16:50;101230.69;;;20.01;60.68
72157;BME280;60035;52.122;5.406;2023-07-16T08:19:16;101225.78;;;19.96;61.07
72157;BME280;60035;52.122;5.406;2023-07-16T08:21:43;101241.88;;;19.89;60.53
72157;BME280;60035;52.122;5.406;2023-07-16T08:24:10;101232.38;;;19.73;61.59
72157;BME280;60035;52.122;5.406;2023-07-16T08:26:36;101238.34;;;19.75;61.33
72157;BME280;60035;52.122;5.406;2023-07-16T08:29:03;101228.75;;;19.90;61.68
72157;BME280;60035;52.122;5.406;2023-07-16T08:31:30;101237.19;;;20.08;61.08
72157;BME280;60035;52.122;5.406;2023-07-16T08:33:57;101228.28;;;20.25;60.85
72157;BME280;60035;52.122;5.406;2023-07-16T08:36:25;101241.91;;;20.29;60.81
72157;BME280;60035;52.122;5.406;2023-07-16T08:38:52;101244.84;;;20.37;60.72
72157;BME280;60035;52.122;5.406;2023-07-16T08:41:18;101242.84;;;20.55;60.92
72157;BME280;60035;52.122;5.406;2023-07-16T08:43:46;101237.94;;;20.63;59.49
72157;BME280;60035;52.122;5.406;2023-07-16T08:46:15;101247.28;;;20.53;60.15
72157;BME280;60035;52.122;5.406;2023-07-16T08:48:42;101270.00;;;20.51;60.24
72157;BME280;60035;52.122;5.406;2023-07-16T08:51:14;101260.19;;;20.42;60.03
72157;BME280;60035;52.122;5.406;2023-07-16T08:53:41;101257.19;;;20.21;60.53
72157;BME280;60035;52.122;5.406;2023-07-16T08:56:08;101263.34;;;20.05;60.95
72157;BME280;60035;52.122;5.406;2023-07-16T08:58:35;101272.44;;;20.12;61.34
72157;BME280;60035;52.122;5.406;2023-07-16T09:01:05;101273.63;;;20.21;61.41
72157;BME280;60035;52.122;5.406;2023-07-16T09:03:32;101270.19;;;20.21;61.02
72157;BME280;60035;52.122;5.406;2023-07-16T09:05:58;101267.59;;;20.21;60.88
72157;BME280;60035;52.122;5.406;2023-07-16T09:08:25;101277.78;;;20.24;61.26
72157;BME280;60035;52.122;5.406;2023-07-16T09:10:55;101282.25;;;20.76;60.74
72157;BME280;60035;52.122;5.406;2023-07-16T09:13:23;101266.88;;;20.99;59.00
72157;BME280;60035;52.122;5.406;2023-07-16T09:15:57;101277.53;;;21.09;58.66
72157;BME280;60035;52.122;5.406;2023-07-16T09:18:27;101279.91;;;21.12;57.66
72157;BME280;60035;52.122;5.406;2023-07-16T09:20:55;101282.72;;;20.96;57.93
72157;BME280;60035;52.122;5.406;2023-07-16T09:23:26;101290.38;;;20.85;57.71
72157;BME280;60035;52.122;5.406;2023-07-16T09:25:54;101292.97;;;20.72;58.59
72157;BME280;60035;52.122;5.406;2023-07-16T09:28:21;101296.09;;;20.77;58.14
72157;BME280;60035;52.122;5.406;2023-07-16T09:30:48;101290.50;;;20.83;58.91
72157;BME280;60035;52.122;5.406;2023-07-16T09:33:15;101291.25;;;20.98;58.33
72157;BME280;60035;52.122;5.406;2023-07-16T09:35:47;101297.09;;;21.02;57.94
72157;BME280;60035;52.122;5.406;2023-07-16T09:38:14;101291.66;;;21.05;57.28
72157;BME280;60035;52.122;5.406;2023-07-16T09:40:41;101292.72;;;21.15;57.25
72157;BME280;60035;52.122;5.406;2023-07-16T09:43:10;101290.00;;;21.17;57.09
72157;BME280;60035;52.122;5.406;2023-07-16T09:45:37;101309.13;;;21.30;57.05
72157;BME280;60035;52.122;5.406;2023-07-16T09:48:04;101308.16;;;21.18;57.09
72157;BME280;60035;52.122;5.406;2023-07-16T09:50:33;101295.94;;;21.06;58.19
72157;BME280;60035;52.122;5.406;2023-07-16T09:53:00;101308.56;;;21.38;57.88
72157;BME280;60035;52.122;5.406;2023-07-16T09:55:31;101297.78;;;21.57;57.01
72157;BME280;60035;52.122;5.406;2023-07-16T09:58:02;101319.13;;;21.62;56.95
72157;BME280;60035;52.122;5.406;2023-07-16T10:00:32;101309.13;;;21.56;56.47
72157;BME280;60035;52.122;5.406;2023-07-16T10:03:05;101316.19;;;21.54;57.08
72157;BME280;60035;52.122;5.406;2023-07-16T10:05:36;101320.25;;;21.45;56.94
72157;BME280;60035;52.122;5.406;2023-07-16T10:08:03;101319.00;;;21.51;57.15
72157;BME280;60035;52.122;5.406;2023-07-16T10:10:43;101310.81;;;21.57;57.05
72157;BME280;60035;52.122;5.406;2023-07-16T10:13:14;101317.63;;;21.84;57.39
72157;BME280;60035;52.122;5.406;2023-07-16T10:15:58;101330.94;;;22.05;56.22
72157;BME280;60035;52.122;5.406;2023-07-16T10:18:30;101324.53;;;22.22;55.47
72157;BME280;60035;52.122;5.406;2023-07-16T10:21:02;101327.00;;;22.60;55.15
72157;BME280;60035;52.122;5.406;2023-07-16T10:23:40;101320.31;;;22.69;53.72
72157;BME280;60035;52.122;5.406;2023-07-16T10:26:08;101326.69;;;22.41;54.36
72157;BME280;60035;52.122;5.406;2023-07-16T10:28:36;101330.41;;;22.12;54.84
72157;BME280;60035;52.122;5.406;2023-07-16T10:31:03;101339.03;;;21.63;55.64
72157;BME280;60035;52.122;5.406;2023-07-16T10:33:30;101339.53;;;21.42;56.63
72157;BME280;60035;52.122;5.406;2023-07-16T10:35:57;101348.91;;;21.32;57.11
72157;BME280;60035;52.122;5.406;2023-07-16T10:38:27;101348.78;;;21.34;57.00
72157;BME280;60035;52.122;5.406;2023-07-16T10:40:55;101349.00;;;21.30;56.64
72157;BME280;60035;52.122;5.406;2023-07-16T10:43:23;101354.94;;;21.45;57.13
72157;BME280;60035;52.122;5.406;2023-07-16T10:45:50;101355.00;;;21.71;57.02
72157;BME280;60035;52.122;5.406;2023-07-16T10:48:17;101365.59;;;21.94;55.76
72157;BME280;60035;52.122;5.406;2023-07-16T10:50:44;101363.63;;;21.98;55.68
72157;BME280;60035;52.122;5.406;2023-07-16T10:53:10;101356.81;;;22.08;54.86
72157;BME280;60035;52.122;5.406;2023-07-16T10:55:38;101361.59;;;22.14;54.62
72157;BME280;60035;52.122;5.406;2023-07-16T10:58:05;101362.53;;;22.13;55.07
72157;BME280;60035;52.122;5.406;2023-07-16T11:00:39;101350.22;;;22.15;55.01
72157;BME280;60035;52.122;5.406;2023-07-16T11:03:05;101369.13;;;22.06;55.55
72157;BME280;60035;52.122;5.406;2023-07-16T11:05:35;101378.31;;;21.99;55.33
72157;BME280;60035;52.122;5.406;2023-07-16T11:08:02;101377.47;;;21.98;55.84
72157;BME280;60035;52.122;5.406;2023-07-16T11:10:29;101371.09;;;22.02;56.09
72157;BME280;60035;52.122;5.406;2023-07-16T11:12:56;101381.94;;;22.22;55.58
72157;BME280;60035;52.122;5.406;2023-07-16T11:15:32;101369.59;;;22.61;55.26
72157;BME280;60035;52.122;5.406;2023-07-16T11:18:01;101378.72;;;22.55;55.24
72157;BME280;60035;52.122;5.406;2023-07-16T11:20:29;101373.66;;;22.41;55.04
72157;BME280;60035;52.122;5.406;2023-07-16T11:22:58;101377.22;;;22.27;55.66
72157;BME280;60035;52.122;5.406;2023-07-16T11:25:25;101387.44;;;22.17;55.46
72157;BME280;60035;52.122;5.406;2023-07-16T11:27:54;101386.66;;;22.04;55.98
72157;BME280;60035;52.122;5.406;2023-07-16T11:30:24;101377.59;;;22.09;55.67
72157;BME280;60035;52.122;5.406;2023-07-16T11:32:52;101412.53;;;22.07;55.95
72157;BME280;60035;52.122;5.406;2023-07-16T11:35:20;101402.69;;;22.10;56.17
72157;BME280;60035;52.122;5.406;2023-07-16T11:37:47;101399.09;;;22.00;56.39
72157;BME280;60035;52.122;5.406;2023-07-16T11:40:18;101399.56;;;22.18;56.27
72157;BME280;60035;52.122;5.406;2023-07-16T11:42:45;101403.59;;;22.48;56.36
72157;BME280;60035;52.122;5.406;2023-07-16T11:47:46;101409.25;;;22.66;53.19
72157;BME280;60035;52.122;5.406;2023-07-16T11:50:13;101400.59;;;22.66;52.68
72157;BME280;60035;52.122;5.406;2023-07-16T11:52:40;101417.31;;;22.87;52.17
72157;BME280;60035;52.122;5.406;2023-07-16T11:55:07;101427.28;;;23.06;52.97
72157;BME280;60035;52.122;5.406;2023-07-16T11:57:35;101432.66;;;23.40;48.65
72157;BME280;60035;52.122;5.406;2023-07-16T12:00:03;101422.66;;;23.45;50.07
72157;BME280;60035;52.122;5.406;2023-07-16T12:02:30;101418.06;;;23.49;48.42
72157;BME280;60035;52.122;5.406;2023-07-16T12:04:56;101427.25;;;23.31;49.06
72157;BME280;60035;52.122;5.406;2023-07-16T12:07:33;101418.06;;;22.65;50.05
72157;BME280;60035;52.122;5.406;2023-07-16T12:10:03;101411.22;;;22.75;50.66
72157;BME280;60035;52.122;5.406;2023-07-16T12:12:30;101417.53;;;23.08;50.29
72157;BME280;60035;52.122;5.406;2023-07-16T12:14:56;101430.13;;;23.39;49.65
72157;BME280;60035;52.122;5.406;2023-07-16T12:17:23;101409.22;;;23.39;49.76
72157;BME280;60035;52.122;5.406;2023-07-16T12:19:50;101416.03;;;23.53;49.21
72157;BME280;60035;52.122;5.406;2023-07-16T12:22:17;101424.69;;;23.42;49.05
72157;BME280;60035;52.122;5.406;2023-07-16T12:24:46;101431.69;;;23.41;49.80
72157;BME280;60035;52.122;5.406;2023-07-16T12:27:14;101428.53;;;23.72;48.23
72157;BME280;60035;52.122;5.406;2023-07-16T12:29:41;101429.94;;;23.42;48.47
72157;BME280;60035;52.122;5.406;2023-07-16T12:32:07;101422.66;;;23.10;49.36
72157;BME280;60035;52.122;5.406;2023-07-16T12:34:35;101424.69;;;23.42;49.63
72157;BME280;60035;52.122;5.406;2023-07-16T12:37:02;101414.06;;;23.79;48.22
72157;BME280;60035;52.122;5.406;2023-07-16T12:39:29;101449.50;;;23.83;48.20
72157;BME280;60035;52.122;5.406;2023-07-16T12:41:55;101424.19;;;24.18;47.85
72157;BME280;60035;52.122;5.406;2023-07-16T12:44:22;101425.00;;;24.18;47.25
72157;BME280;60035;52.122;5.406;2023-07-16T12:46:49;101428.72;;;24.27;47.57
72157;BME280;60035;52.122;5.406;2023-07-16T12:49:15;101452.09;;;24.51;46.52
72157;BME280;60035;52.122;5.406;2023-07-16T12:51:42;101446.31;;;24.14;46.57
72157;BME280;60035;52.122;5.406;2023-07-16T12:54:08;101432.78;;;24.20;46.81
72157;BME280;60035;52.122;5.406;2023-07-16T12:56:35;101440.25;;;24.36;46.75
72157;BME280;60035;52.122;5.406;2023-07-16T12:59:01;101440.31;;;24.68;46.85